Terminal Aerodrome Forecast
Issued by NWS

Current Version | Previous Version | Text Only | Print | Product List | Glossary On
Versions: 1 2 3 4 5 6 7 8 9 10 11 12
000
FTAK31 PAFA 280526
TAFAFA
TAF
PAFA 280526Z 2806/2912 01011KT P6SM FEW060 BKN100 BKN120
     FM280800 01006KT P6SM -SN SCT050 OVC080
     FM281000 01006KT 6SM -SN BR SCT025 BKN035 OVC050
     FM282200 03003KT P6SM VCSH FEW025 SCT050 BKN100=

USA.gov is the U.S. government's official web portal to all federal, state and local government web resources and services.